Time;durP1;ratioP1;P1;durP2;ratioP2;P2;SDS_P1;SDS_P2;PMS_P1;PMS_P2;Temp;Humidity;BMP_temperature;BMP_pressure;BME280_temperature;BME280_humidity;BME280_pressure;Samples;Min_cycle;Max_cycle;Signal;HPM_P1;HPM_P2
2021/11/28 00:01:16;;;;;;;51.70;30.00;;;;;;;0.10;80.73;98367.55;103203;1316;112563;-64
2021/11/28 00:03:49;;;;;;;50.10;27.20;;;;;;;0.07;80.86;98374.45;103187;1314;109051;-64
2021/11/28 00:06:23;;;;;;;45.30;26.50;;;;;;;0.01;80.83;98381.41;103106;1314;138510;-64
2021/11/28 00:09:19;;;;;;;47.30;27.90;;;;;;;-0.04;81.14;98389.69;103311;1314;97858;-65
2021/11/28 00:12:11;;;;;;;47.30;26.60;;;;;;;-0.07;81.17;98389.92;103659;1316;138278;-64
2021/11/28 00:14:43;;;;;;;51.50;28.00;;;;;;;-0.08;81.30;98389.44;103237;1315;113252;-65
2021/11/28 00:17:15;;;;;;;49.70;28.60;;;;;;;-0.09;81.61;98391.84;103497;1318;138582;-66
2021/11/28 00:19:47;;;;;;;48.90;29.20;;;;;;;-0.09;81.43;98389.63;103752;1316;107752;-65
2021/11/28 00:22:20;;;;;;;52.80;31.10;;;;;;;-0.11;81.53;98391.90;103177;1315;97822;-64
2021/11/28 00:24:53;;;;;;;57.20;32.30;;;;;;;-0.13;81.47;98404.58;103179;1316;138503;-65
2021/11/28 00:27:25;;;;;;;55.40;32.80;;;;;;;-0.18;81.41;98409.60;103678;1316;112576;-65
2021/11/28 00:29:56;;;;;;;54.90;30.90;;;;;;;-0.23;81.62;98405.92;103263;1315;138899;-64
2021/11/28 00:32:28;;;;;;;57.20;31.40;;;;;;;-0.23;81.83;98409.34;103025;1317;109101;-63
2021/11/28 00:35:00;;;;;;;56.10;32.20;;;;;;;-0.23;81.77;98411.06;102972;1314;138862;-66
2021/11/28 00:37:33;;;;;;;59.90;33.00;;;;;;;-0.20;82.06;98406.91;104377;1317;95993;-64
2021/11/28 00:40:06;;;;;;;61.50;34.60;;;;;;;-0.17;82.13;98404.98;104495;1316;113102;-64
2021/11/28 00:42:38;;;;;;;67.00;37.00;;;;;;;-0.12;82.31;98407.98;103415;1315;139268;-64
2021/11/28 00:45:12;;;;;;;63.90;36.30;;;;;;;-0.09;82.07;98412.69;102970;1318;108811;-64
2021/11/28 00:47:44;;;;;;;70.50;39.60;;;;;;;-0.05;81.86;98409.19;103788;1315;138005;-65
2021/11/28 00:50:28;;;;;;;66.80;37.80;;;;;;;-0.02;81.96;98409.98;103194;1317;97778;-64
2021/11/28 00:53:00;;;;;;;63.90;36.00;;;;;;;0.02;81.86;98414.73;102965;1317;138892;-63
2021/11/28 00:55:32;;;;;;;62.70;34.80;;;;;;;0.02;81.76;98415.23;103105;1315;109163;-66
2021/11/28 00:58:04;;;;;;;69.10;37.40;;;;;;;0.07;81.85;98411.89;103159;1315;108977;-65
2021/11/28 01:00:38;;;;;;;68.90;36.80;;;;;;;0.14;82.18;98411.55;102939;1315;138913;-63
2021/11/28 01:03:10;;;;;;;70.10;38.80;;;;;;;0.21;82.17;98403.91;103117;1314;98061;-66
2021/11/28 01:05:42;;;;;;;70.00;39.30;;;;;;;0.30;81.97;98400.80;102870;1316;138444;-64
2021/11/28 01:08:20;;;;;;;72.40;39.20;;;;;;;0.36;81.87;98397.63;103111;1316;109157;-66
2021/11/28 01:10:52;;;;;;;76.40;41.10;;;;;;;0.40;81.43;98395.66;102988;1320;137980;-63
2021/11/28 01:13:25;;;;;;;66.60;39.30;;;;;;;0.40;81.61;98392.92;103039;1315;98051;-64
2021/11/28 01:15:57;;;;;;;70.20;39.30;;;;;;;0.38;81.22;98389.54;102862;1323;97886;-66
2021/11/28 01:18:32;;;;;;;67.40;39.00;;;;;;;0.40;81.35;98387.64;102850;1316;138738;-64
2021/11/28 01:21:04;;;;;;;67.90;39.00;;;;;;;0.41;81.68;98382.98;103094;1320;108643;-64
2021/11/28 01:23:36;;;;;;;73.40;39.70;;;;;;;0.44;81.62;98386.33;102962;1317;138477;-64
2021/11/28 01:26:16;;;;;;;76.00;41.90;;;;;;;0.47;81.43;98386.10;102990;1316;97859;-64
2021/11/28 01:28:48;;;;;;;73.50;41.40;;;;;;;0.52;81.49;98387.69;102961;1320;137787;-64
2021/11/28 01:31:22;;;;;;;74.30;42.20;;;;;;;0.57;81.38;98386.58;102905;1316;112360;-64
2021/11/28 01:33:54;;;;;;;71.30;40.90;;;;;;;0.60;81.68;98382.40;103084;1316;109140;-64
2021/11/28 01:36:26;;;;;;;73.90;40.80;;;;;;;0.64;81.53;98382.33;102936;1320;138721;-64
2021/11/28 01:38:58;;;;;;;69.10;39.90;;;;;;;0.65;81.37;98382.46;103170;1317;98430;-64
2021/11/28 01:41:31;;;;;;;71.40;40.10;;;;;;;0.68;81.34;98383.40;102995;1316;138281;-64
2021/11/28 01:44:04;;;;;;;68.80;36.20;;;;;;;0.70;81.24;98385.60;102903;1318;111052;-64
2021/11/28 01:46:36;;;;;;;66.90;37.30;;;;;;;0.71;81.60;98387.61;103164;1317;138722;-64
2021/11/28 01:49:10;;;;;;;68.90;38.20;;;;;;;0.74;81.12;98382.95;103116;1317;109227;-63
2021/11/28 01:51:43;;;;;;;68.70;38.40;;;;;;;0.79;81.30;98378.20;103120;1315;97949;-64
2021/11/28 01:54:15;;;;;;;69.40;38.60;;;;;;;0.85;81.37;98377.38;102834;1316;138310;-64
2021/11/28 01:56:50;;;;;;;72.40;39.40;;;;;;;0.90;81.35;98375.23;103003;1323;112635;-65
2021/11/28 01:59:22;;;;;;;69.60;39.20;;;;;;;0.94;81.31;98377.87;102994;1317;137883;-64
2021/11/28 02:01:54;;;;;;;72.50;39.60;;;;;;;0.94;81.19;98375.98;104473;1316;107054;-64
2021/11/28 02:04:27;;;;;;;68.90;38.50;;;;;;;0.95;81.18;98377.68;104448;1316;96435;-64
2021/11/28 02:06:59;;;;;;;66.50;37.00;;;;;;;0.95;81.10;98380.92;104390;1316;138232;-64
2021/11/28 02:09:31;;;;;;;65.90;37.00;;;;;;;0.97;81.18;98380.71;104412;1321;112648;-64
2021/11/28 02:12:04;;;;;;;62.40;36.20;;;;;;;1.01;81.06;98376.67;104407;1317;139516;-64
2021/11/28 02:14:38;;;;;;;65.50;37.30;;;;;;;1.06;80.96;98378.44;104379;1317;108394;-64
2021/11/28 02:17:10;;;;;;;66.80;38.10;;;;;;;1.11;81.10;98372.68;104260;1317;138488;-65
2021/11/28 02:19:42;;;;;;;65.20;37.50;;;;;;;1.15;80.82;98371.02;104485;1317;95913;-65
2021/11/28 02:22:14;;;;;;;68.50;39.10;;;;;;;1.17;81.01;98368.40;104392;1316;112619;-64
2021/11/28 02:24:47;;;;;;;73.90;40.50;;;;;;;1.18;80.71;98367.52;104257;1317;138224;-64
2021/11/28 02:27:19;;;;;;;73.00;40.10;;;;;;;1.18;80.64;98373.34;103786;1316;107862;-65
2021/11/28 02:29:51;;;;;;;70.80;39.40;;;;;;;1.18;80.69;98370.44;104384;1320;140280;-64
2021/11/28 02:32:23;;;;;;;64.60;36.20;;;;;;;1.18;80.61;98362.91;103222;1323;96185;-64
2021/11/28 02:34:55;;;;;;;63.50;35.80;;;;;;;1.19;80.83;98364.76;103562;1316;139062;-64
2021/11/28 02:37:27;;;;;;;63.70;36.80;;;;;;;1.24;80.93;98363.96;104401;1320;108924;-65
2021/11/28 02:40:00;;;;;;;71.70;40.00;;;;;;;1.27;80.85;98363.05;104347;1317;107915;-65
2021/11/28 02:42:31;;;;;;;68.40;38.90;;;;;;;1.32;80.69;98355.39;104106;1317;138469;-64
2021/11/28 02:45:04;;;;;;;65.80;38.20;;;;;;;1.35;80.93;98358.56;104431;1317;99530;-65
2021/11/28 02:47:36;;;;;;;68.70;39.80;;;;;;;1.36;80.71;98359.55;104018;1316;137708;-65
2021/11/28 02:50:11;;;;;;;65.50;37.70;;;;;;;1.37;80.62;98357.80;104425;1317;109009;-65
2021/11/28 02:52:45;;;;;;;66.90;37.90;;;;;;;1.38;80.58;98352.48;104171;1318;137811;-65
2021/11/28 02:55:17;;;;;;;68.80;37.30;;;;;;;1.37;80.53;98343.60;104477;1316;95983;-65
2021/11/28 02:57:50;;;;;;;62.80;35.50;;;;;;;1.40;80.45;98343.18;103109;1315;97883;-64
2021/11/28 03:00:23;;;;;;;60.30;35.10;;;;;;;1.42;80.71;98339.34;102931;1320;138443;-64
2021/11/28 03:02:56;;;;;;;59.60;35.00;;;;;;;1.50;80.67;98343.11;103996;1305;109593;-65
2021/11/28 03:05:30;;;;;;;62.70;36.00;;;;;;;1.61;80.79;98348.11;104181;1318;137907;-63
2021/11/28 03:08:02;;;;;;;59.10;35.20;;;;;;;1.67;80.55;98351.73;104293;1316;95871;-64
2021/11/28 03:10:38;;;;;;;66.90;38.80;;;;;;;1.74;80.58;98358.04;103821;1315;96063;-63
2021/11/28 03:13:11;;;;;;;67.40;37.70;;;;;;;1.82;80.37;98367.09;104457;1314;137556;-64
2021/11/28 03:15:44;;;;;;;67.00;39.90;;;;;;;1.86;80.12;98363.91;103609;1316;108136;-64
2021/11/28 03:18:18;;;;;;;68.90;39.50;;;;;;;1.85;79.99;98366.16;104461;1313;138306;-64
2021/11/28 03:20:52;;;;;;;66.60;37.60;;;;;;;1.81;79.75;98369.69;104396;1316;95893;-65
2021/11/28 03:23:28;;;;;;;60.80;35.70;;;;;;;1.77;79.73;98370.98;104448;1314;138660;-66
2021/11/28 03:26:09;;;;;;;68.20;37.50;;;;;;;1.70;79.59;98368.44;103783;1321;112627;-64
2021/11/28 03:28:44;;;;;;;63.80;37.50;;;;;;;1.64;79.74;98369.80;104459;1315;108970;-64
2021/11/28 03:31:16;;;;;;;66.40;37.60;;;;;;;1.62;79.90;98372.59;104107;1322;138171;-64
2021/11/28 03:34:24;;;;;;;67.80;39.00;;;;;;;1.56;79.88;98378.23;103615;1322;96097;-65
2021/11/28 03:36:58;;;;;;;65.70;39.20;;;;;;;1.50;80.07;98377.52;104257;1316;137647;-65
2021/11/28 03:39:31;;;;;;;73.70;41.70;;;;;;;1.45;80.22;98383.83;104441;1317;112496;-65
2021/11/28 03:42:08;;;;;;;63.70;37.40;;;;;;;1.40;80.27;98384.95;104381;1313;138420;-64
2021/11/28 03:44:43;;;;;;;64.00;37.00;;;;;;;1.36;80.52;98381.30;104258;1318;109345;-64
2021/11/28 03:47:18;;;;;;;65.00;36.80;;;;;;;1.35;80.47;98378.94;103502;1320;139874;-64
2021/11/28 03:49:59;;;;;;;62.40;36.40;;;;;;;1.36;80.77;98379.41;104427;1316;96102;-64
2021/11/28 03:52:31;;;;;;;66.00;36.80;;;;;;;1.40;80.71;98385.81;104261;1315;112541;-64
2021/11/28 03:55:04;;;;;;;63.60;36.00;;;;;;;1.43;80.88;98389.51;103699;1319;137862;-64
2021/11/28 03:57:36;;;;;;;68.10;39.30;;;;;;;1.46;80.87;98388.25;103962;1316;108839;-64
2021/11/28 04:00:13;;;;;;;64.80;37.50;;;;;;;1.46;80.80;98376.08;104380;1315;138278;-63
2021/11/28 04:02:51;;;;;;;66.40;38.40;;;;;;;1.46;80.86;98371.48;104640;1315;96104;-64
2021/11/28 04:05:30;;;;;;;67.70;37.40;;;;;;;1.46;80.82;98377.30;104384;1316;138661;-64
2021/11/28 04:08:02;;;;;;;67.50;36.60;;;;;;;1.46;80.87;98379.16;104688;1315;108903;-64
2021/11/28 04:10:34;;;;;;;62.10;36.60;;;;;;;1.48;80.92;98375.86;104375;1319;109061;-64
2021/11/28 04:13:07;;;;;;;65.30;36.80;;;;;;;1.48;80.78;98378.08;104448;1318;138943;-64
2021/11/28 04:15:41;;;;;;;62.90;36.60;;;;;;;1.50;80.84;98377.88;103700;1317;96152;-63
2021/11/28 04:18:25;;;;;;;70.60;38.40;;;;;;;1.51;80.85;98375.42;103561;1317;137802;-64
2021/11/28 04:20:58;;;;;;;63.50;37.70;;;;;;;1.50;80.71;98368.60;104468;1317;110333;-64
2021/11/28 04:23:30;;;;;;;67.70;39.30;;;;;;;1.49;80.61;98366.59;104259;1317;138089;-64
2021/11/28 04:26:03;;;;;;;63.80;36.40;;;;;;;1.45;80.90;98370.96;103805;1321;96245;-64
2021/11/28 04:28:36;;;;;;;61.90;35.00;;;;;;;1.44;80.97;98372.20;104574;1315;97212;-64
2021/11/28 04:31:08;;;;;;;63.00;35.10;;;;;;;1.41;80.91;98367.11;104492;1316;138247;-65
2021/11/28 04:33:40;;;;;;;61.00;35.20;;;;;;;1.38;81.08;98358.80;104561;1315;109223;-66
2021/11/28 04:36:12;;;;;;;59.40;34.90;;;;;;;1.41;81.07;98358.72;104558;1316;138191;-65
2021/11/28 04:38:44;;;;;;;61.50;36.30;;;;;;;1.43;81.08;98363.83;104494;1315;96424;-63
2021/11/28 04:41:19;;;;;;;65.00;35.30;;;;;;;1.44;81.12;98366.56;104454;1316;138943;-64
2021/11/28 04:43:57;;;;;;;67.30;37.40;;;;;;;1.43;81.11;98361.58;104478;1317;112715;-64
2021/11/28 04:46:29;;;;;;;64.80;37.30;;;;;;;1.44;81.07;98371.17;104565;1315;107928;-63
2021/11/28 04:49:03;;;;;;;62.80;35.30;;;;;;;1.41;80.97;98374.32;104332;1315;138766;-64
2021/11/28 04:51:39;;;;;;;61.10;34.70;;;;;;;1.37;80.93;98369.11;103355;1325;96128;-64
2021/11/28 04:54:13;;;;;;;55.90;33.30;;;;;;;1.35;81.01;98361.30;104429;1316;140072;-64
2021/11/28 04:56:45;;;;;;;61.60;35.40;;;;;;;1.37;81.11;98356.62;104431;1318;112541;-65
2021/11/28 04:59:19;;;;;;;63.60;34.90;;;;;;;1.40;81.18;98356.18;104464;1314;138099;-64
2021/11/28 05:01:51;;;;;;;61.70;33.80;;;;;;;1.42;81.08;98364.02;103837;1318;107993;-66
2021/11/28 05:04:27;;;;;;;62.50;35.40;;;;;;;1.42;81.12;98367.25;103486;1319;97028;-65
2021/11/28 05:07:17;;;;;;;60.30;34.80;;;;;;;1.41;81.01;98363.18;104554;1315;137758;-66
2021/11/28 05:09:58;;;;;;;61.50;33.80;;;;;;;1.40;81.21;98363.56;104539;1316;112577;-63
2021/11/28 05:12:37;;;;;;;61.40;32.60;;;;;;;1.38;81.19;98371.14;104192;1318;139695;-64
2021/11/28 05:15:11;;;;;;;56.40;32.40;;;;;;;1.38;81.19;98374.56;104553;1315;109272;-64
2021/11/28 05:17:54;;;;;;;54.30;32.20;;;;;;;1.40;81.11;98375.36;104252;1321;138610;-65
2021/11/28 05:20:26;;;;;;;53.30;30.90;;;;;;;1.44;81.19;98381.78;104560;1315;96037;-65
2021/11/28 05:22:59;;;;;;;56.80;33.00;;;;;;;1.45;81.12;98394.44;103720;1318;138226;-66
2021/11/28 05:25:31;;;;;;;55.60;32.80;;;;;;;1.47;81.16;98403.63;103560;1323;109020;-65
2021/11/28 05:28:03;;;;;;;62.70;35.20;;;;;;;1.47;81.10;98403.99;104385;1315;109081;-65
2021/11/28 05:30:38;;;;;;;62.80;34.10;;;;;;;1.45;81.05;98407.46;104461;1316;137699;-66
2021/11/28 05:33:36;;;;;;;56.00;31.90;;;;;;;1.43;81.06;98407.83;104700;1319;96155;-65
2021/11/28 05:36:47;;;;;;;56.20;31.50;;;;;;;1.43;81.25;98409.20;103896;1319;139028;-65
2021/11/28 05:39:19;;;;;;;57.50;33.50;;;;;;;1.43;81.19;98402.34;104085;1321;107870;-64
2021/11/28 05:41:51;;;;;;;60.90;32.90;;;;;;;1.44;81.11;98395.50;104164;1314;139858;-64
2021/11/28 05:44:23;;;;;;;62.60;34.00;;;;;;;1.42;81.22;98394.65;104467;1319;97181;-64
2021/11/28 05:47:18;;;;;;;63.60;35.80;;;;;;;1.40;81.21;98389.39;104422;1315;139836;-65
2021/11/28 05:50:10;;;;;;;64.30;34.40;;;;;;;1.38;81.28;98389.98;104662;1316;110988;-65
2021/11/28 05:52:51;;;;;;;58.00;33.40;;;;;;;1.36;81.21;98384.55;104505;1313;109063;-64
2021/11/28 05:55:24;;;;;;;58.80;33.00;;;;;;;1.35;81.31;98384.41;104444;1316;139367;-66
2021/11/28 05:57:59;;;;;;;59.90;33.10;;;;;;;1.37;81.43;98380.75;104632;1315;96070;-64
2021/11/28 06:00:32;;;;;;;59.00;32.50;;;;;;;1.39;81.41;98374.89;104444;1316;138403;-64
2021/11/28 06:03:04;;;;;;;55.70;33.70;;;;;;;1.40;81.38;98368.88;104435;1316;111506;-64
2021/11/28 06:05:44;;;;;;;63.70;36.00;;;;;;;1.39;81.42;98368.54;104596;1315;139621;-64
2021/11/28 06:08:44;;;;;;;60.60;34.90;;;;;;;1.36;81.20;98365.89;103969;1315;108552;-65
2021/11/28 06:11:16;;;;;;;59.80;33.90;;;;;;;1.31;81.36;98373.72;104374;1317;138013;-66
2021/11/28 06:13:48;;;;;;;60.00;33.00;;;;;;;1.27;81.46;98377.60;104157;1316;96928;-62
2021/11/28 06:16:22;;;;;;;58.40;33.40;;;;;;;1.26;81.59;98375.39;104294;1317;111403;-64
2021/11/28 06:19:27;;;;;;;56.80;32.80;;;;;;;1.28;81.75;98372.80;104168;1316;138936;-64
2021/11/28 06:22:25;;;;;;;58.60;34.30;;;;;;;1.32;81.54;98373.20;104243;1317;109308;-64
2021/11/28 06:25:00;;;;;;;59.20;33.90;;;;;;;1.35;81.53;98374.64;104411;1316;139100;-64
2021/11/28 06:27:53;;;;;;;61.50;34.00;;;;;;;1.40;81.53;98382.04;104367;1318;96355;-64
2021/11/28 06:30:26;;;;;;;63.70;35.10;;;;;;;1.42;81.50;98390.04;103856;1319;138452;-64
2021/11/28 06:33:25;;;;;;;59.60;34.00;;;;;;;1.39;81.28;98391.30;103352;1325;109094;-64
2021/11/28 06:36:29;;;;;;;57.30;33.00;;;;;;;1.35;81.11;98402.20;104171;1319;138744;-64
2021/11/28 06:39:30;;;;;;;54.00;31.30;;;;;;;1.31;81.11;98411.56;103450;1322;97055;-65
2021/11/28 06:42:23;;;;;;;56.90;33.80;;;;;;;1.29;81.22;98416.59;104390;1316;138447;-64
2021/11/28 06:44:55;;;;;;;60.30;33.20;;;;;;;1.28;81.28;98417.83;104630;1319;111526;-64
2021/11/28 06:47:47;;;;;;;56.60;33.00;;;;;;;1.31;81.25;98419.78;103962;1315;138799;-64
2021/11/28 06:50:19;;;;;;;59.60;35.10;;;;;;;1.33;81.25;98416.31;104645;1316;108745;-65
2021/11/28 06:53:10;;;;;;;62.20;35.40;;;;;;;1.36;81.28;98415.89;104462;1316;138607;-65
2021/11/28 06:56:09;;;;;;;62.20;35.40;;;;;;;1.37;81.24;98419.45;103514;1327;96043;-65
2021/11/28 06:58:50;;;;;;;62.70;35.20;;;;;;;1.38;81.22;98426.27;104509;1316;112569;-65
2021/11/28 07:01:22;;;;;;;60.80;34.20;;;;;;;1.40;81.27;98428.96;104362;1313;139069;-64
2021/11/28 07:04:26;;;;;;;61.60;33.90;;;;;;;1.46;81.18;98423.36;104206;1316;109692;-65
2021/11/28 07:07:05;;;;;;;60.80;33.00;;;;;;;1.53;81.30;98419.76;104395;1315;138995;-64
2021/11/28 07:09:38;;;;;;;55.30;32.20;;;;;;;1.60;80.99;98418.02;104221;1321;95752;-63
2021/11/28 07:12:11;;;;;;;57.70;33.00;;;;;;;1.68;80.99;98413.89;104543;1313;139324;-65
2021/11/28 07:14:43;;;;;;;63.10;35.00;;;;;;;1.75;80.72;98413.88;104529;1319;109436;-65
2021/11/28 07:17:19;;;;;;;62.80;36.60;;;;;;;1.82;80.83;98418.48;104307;1321;138658;-65
2021/11/28 07:19:51;;;;;;;62.40;36.80;;;;;;;1.86;80.52;98416.51;104028;1320;96184;-64
2021/11/28 07:22:41;;;;;;;63.40;35.40;;;;;;;1.87;80.43;98413.41;104534;1313;96481;-65
2021/11/28 07:25:13;;;;;;;56.10;32.90;;;;;;;1.88;80.32;98412.36;104193;1320;138834;-65
2021/11/28 07:27:48;;;;;;;63.90;33.90;;;;;;;1.90;80.23;98410.39;104373;1316;109099;-67
2021/11/28 07:30:20;;;;;;;57.70;32.40;;;;;;;1.99;80.40;98411.20;104288;1317;138854;-65
2021/11/28 07:32:53;;;;;;;65.20;33.80;;;;;;;2.09;80.37;98410.05;104456;1317;96021;-65
2021/11/28 07:35:48;;;;;;;58.60;32.60;;;;;;;2.21;80.08;98408.02;104203;1316;138299;-65
2021/11/28 07:38:24;;;;;;;55.00;34.50;;;;;;;2.30;80.01;98408.44;103743;1320;111561;-65
2021/11/28 07:40:56;;;;;;;57.40;33.40;;;;;;;2.38;80.01;98411.12;104456;1317;109478;-65
2021/11/28 07:43:51;;;;;;;58.20;34.10;;;;;;;2.47;79.69;98411.39;104432;1317;109098;-65
2021/11/28 07:46:42;;;;;;;61.50;35.30;;;;;;;2.56;79.62;98411.15;104091;1315;96172;-65
2021/11/28 07:49:22;;;;;;;66.50;36.70;;;;;;;2.63;79.37;98411.42;104304;1319;138851;-65
2021/11/28 07:51:54;;;;;;;58.50;34.50;;;;;;;2.70;79.13;98416.05;104433;1317;112535;-65
2021/11/28 07:54:26;;;;;;;61.40;35.00;;;;;;;2.74;78.78;98417.13;104170;1322;140006;-65
2021/11/28 07:56:58;;;;;;;54.30;32.80;;;;;;;2.77;78.53;98417.02;104453;1316;109049;-66
2021/11/28 07:59:51;;;;;;;55.90;33.40;;;;;;;2.91;78.96;98417.11;103777;1316;140696;-66
2021/11/28 08:02:24;;;;;;;56.30;33.00;;;;;;;3.12;78.86;98409.95;104285;1316;97834;-65
2021/11/28 08:04:56;;;;;;;51.60;32.60;;;;;;;3.30;78.56;98410.56;104466;1315;113008;-66
2021/11/28 08:07:47;;;;;;;59.80;35.70;;;;;;;3.47;78.27;98412.24;103724;1320;138106;-66
2021/11/28 08:10:42;;;;;;;71.00;36.20;;;;;;;3.60;77.93;98403.04;104544;1313;107969;-66
2021/11/28 08:13:14;;;;;;;62.10;36.30;;;;;;;3.74;77.82;98398.64;104420;1311;139229;-64
2021/11/28 08:15:46;;;;;;;63.50;34.70;;;;;;;3.86;77.56;98401.64;104575;1316;96484;-64
2021/11/28 08:18:18;;;;;;;61.10;35.00;;;;;;;3.98;77.33;98403.13;104369;1316;139583;-64
2021/11/28 08:20:52;;;;;;;61.50;37.10;;;;;;;4.04;76.90;98402.91;104645;1313;109165;-64
2021/11/28 08:23:25;;;;;;;66.80;40.10;;;;;;;4.10;76.89;98401.82;104473;1313;108068;-64
2021/11/28 08:25:57;;;;;;;57.40;35.30;;;;;;;4.18;76.49;98401.21;104484;1317;138730;-64
2021/11/28 08:28:29;;;;;;;61.90;35.30;;;;;;;4.28;76.29;98403.61;104501;1316;96079;-64
2021/11/28 08:31:01;;;;;;;63.50;36.50;;;;;;;4.38;76.51;98400.52;104385;1316;138615;-65
2021/11/28 08:34:01;;;;;;;72.90;34.00;;;;;;;4.54;76.10;98400.41;104124;1318;108982;-64
2021/11/28 08:36:42;;;;;;;55.10;33.30;;;;;;;4.69;75.56;98398.64;104385;1316;138667;-65
2021/11/28 08:39:14;;;;;;;62.30;34.70;;;;;;;4.84;75.61;98398.76;104465;1315;96269;-64
2021/11/28 08:41:46;;;;;;;53.50;32.30;;;;;;;5.01;75.16;98404.80;104356;1321;138839;-65
2021/11/28 08:44:20;;;;;;;59.50;32.90;;;;;;;5.20;75.02;98406.14;104419;1318;112489;-64
2021/11/28 08:46:52;;;;;;;57.80;34.10;;;;;;;5.35;74.55;98403.81;104472;1316;107987;-64
2021/11/28 08:49:24;;;;;;;66.80;35.00;;;;;;;5.51;74.30;98403.83;103883;1320;139018;-64
2021/11/28 08:51:56;;;;;;;60.10;33.60;;;;;;;5.68;74.18;98403.98;104577;1316;95980;-64
2021/11/28 08:54:30;;;;;;;57.80;34.30;;;;;;;5.83;73.58;98405.98;104335;1316;137822;-63
2021/11/28 08:57:03;;;;;;;59.10;35.50;;;;;;;5.93;73.38;98407.95;104591;1315;112228;-65
2021/11/28 08:59:36;;;;;;;61.00;35.90;;;;;;;6.04;72.91;98406.79;104580;1316;109279;-65
2021/11/28 09:02:10;;;;;;;56.70;35.10;;;;;;;6.19;72.93;98415.82;103733;1320;139749;-65
2021/11/28 09:04:43;;;;;;;60.20;36.50;;;;;;;6.34;72.30;98416.17;103753;1313;95946;-65
2021/11/28 09:07:15;;;;;;;60.50;37.00;;;;;;;6.39;71.74;98411.45;104381;1316;139046;-64
2021/11/28 09:09:47;;;;;;;56.20;36.00;;;;;;;6.38;71.10;98412.05;104545;1317;113564;-65
2021/11/28 09:12:19;;;;;;;61.00;38.70;;;;;;;6.42;71.11;98414.45;104449;1315;139034;-64
2021/11/28 09:14:52;;;;;;;63.30;39.10;;;;;;;6.53;70.77;98408.27;104510;1315;108911;-64
2021/11/28 09:17:24;;;;;;;62.30;38.60;;;;;;;6.66;70.97;98404.40;104538;1315;95973;-64
2021/11/28 09:19:59;;;;;;;58.90;38.00;;;;;;;6.88;70.91;98400.08;104335;1320;138492;-63
2021/11/28 09:24:26;;;;;;;57.40;37.00;;;;;;;7.15;70.35;98393.27;104432;1316;110950;-64
2021/11/28 09:25:29;;;;;;;56.90;36.70;;;;;;;7.53;70.28;98386.40;103232;1323;138853;-64
2021/11/28 09:28:01;;;;;;;55.50;36.30;;;;;;;7.91;70.43;98386.39;103739;1317;108013;-64
2021/11/28 09:30:34;;;;;;;51.80;34.00;;;;;;;8.26;69.33;98384.08;104342;1316;138092;-64
2021/11/28 09:33:08;;;;;;;51.10;33.50;;;;;;;8.52;68.43;98384.63;104560;1317;96153;-64
2021/11/28 09:35:40;;;;;;;50.60;32.60;;;;;;;8.67;67.85;98380.33;104476;1316;112746;-64
2021/11/28 09:38:12;;;;;;;44.70;30.40;;;;;;;8.86;66.72;98378.09;104441;1316;138751;-66
2021/11/28 09:40:47;;;;;;;46.60;31.90;;;;;;;9.04;66.67;98377.81;103518;1322;107788;-65
2021/11/28 09:43:23;;;;;;;49.90;31.40;;;;;;;9.33;66.64;98379.44;104465;1315;138839;-65
2021/11/28 09:45:56;;;;;;;42.70;28.40;;;;;;;9.64;65.77;98377.48;104374;1313;95809;-64
2021/11/28 09:48:29;;;;;;;43.90;27.70;;;;;;;9.90;64.83;98377.05;104155;1317;138115;-64
2021/11/28 09:51:01;;;;;;;43.10;26.80;;;;;;;10.08;64.15;98373.16;104568;1316;109250;-64
2021/11/28 09:53:41;;;;;;;38.80;25.90;;;;;;;10.26;63.56;98369.32;104484;1317;107278;-64
2021/11/28 09:56:14;;;;;;;38.40;26.00;;;;;;;10.48;63.16;98369.05;104176;1316;138082;-64
2021/11/28 09:58:46;;;;;;;37.80;25.60;;;;;;;10.59;61.89;98370.23;103520;1322;96237;-64
2021/11/28 10:01:19;;;;;;;38.70;25.70;;;;;;;10.70;62.08;98363.98;104426;1317;138094;-64
2021/11/28 10:03:51;;;;;;;39.00;25.90;;;;;;;10.93;61.90;98357.86;104220;1315;108725;-64
2021/11/28 10:06:24;;;;;;;39.90;24.40;;;;;;;10.98;60.34;98351.64;104394;1319;139136;-64
2021/11/28 10:08:56;;;;;;;34.20;24.60;;;;;;;10.93;59.68;98348.98;103405;1324;96230;-64
2021/11/28 10:12:02;;;;;;;34.20;24.40;;;;;;;10.77;58.45;98348.09;104240;1315;95994;-63
2021/11/28 10:14:35;;;;;;;39.00;25.40;;;;;;;10.23;58.66;98347.08;104452;1316;139549;-63
2021/11/28 10:17:07;;;;;;;34.70;23.20;;;;;;;9.70;57.50;98348.54;104513;1316;108317;-64
2021/11/28 10:19:40;;;;;;;35.90;23.10;;;;;;;9.06;58.53;98346.46;103590;1319;138899;-64
2021/11/28 10:22:13;;;;;;;37.50;24.60;;;;;;;8.65;59.20;98350.33;104510;1316;95841;-66
2021/11/28 10:25:03;;;;;;;33.80;22.70;;;;;;;8.22;59.45;98354.52;104468;1316;138078;-64
2021/11/28 10:27:40;;;;;;;36.10;24.30;;;;;;;7.78;59.94;98355.06;104170;1312;112562;-64
2021/11/28 10:30:15;;;;;;;36.50;25.10;;;;;;;7.45;60.89;98354.65;103741;1320;138085;-64
2021/11/28 10:32:50;;;;;;;39.50;26.60;;;;;;;7.24;61.62;98361.77;104474;1317;108836;-64
2021/11/28 10:35:23;;;;;;;40.40;25.70;;;;;;;7.08;62.16;98362.50;104543;1316;96122;-64
2021/11/28 10:37:56;;;;;;;39.70;26.70;;;;;;;6.94;62.29;98358.02;103441;1318;139436;-64
2021/11/28 10:40:30;;;;;;;37.30;24.70;;;;;;;6.72;62.43;98360.10;104587;1314;112596;-64
2021/11/28 10:43:13;;;;;;;35.90;23.60;;;;;;;6.51;62.56;98363.27;104490;1316;138154;-64
2021/11/28 10:45:51;;;;;;;35.70;24.20;;;;;;;6.36;62.83;98357.79;104524;1317;108991;-64
2021/11/28 10:48:27;;;;;;;38.20;23.90;;;;;;;6.22;63.15;98357.55;103753;1322;139697;-64
2021/11/28 10:51:01;;;;;;;37.80;22.90;;;;;;;6.09;63.27;98358.30;104553;1317;96153;-64
2021/11/28 10:53:35;;;;;;;37.20;22.50;;;;;;;5.97;63.34;98355.52;103822;1314;112400;-63
2021/11/28 10:56:07;;;;;;;35.30;22.70;;;;;;;5.90;63.67;98352.17;104408;1316;137810;-64
2021/11/28 10:58:40;;;;;;;42.60;25.20;;;;;;;5.92;64.11;98348.15;104547;1316;108916;-64
2021/11/28 11:01:13;;;;;;;40.40;24.60;;;;;;;6.02;64.48;98346.69;104429;1313;138305;-64
2021/11/28 11:03:48;;;;;;;35.90;21.90;;;;;;;6.13;64.39;98350.55;104540;1315;95952;-65
2021/11/28 11:06:23;;;;;;;35.80;22.60;;;;;;;6.17;64.02;98350.38;103407;1322;137996;-66
2021/11/28 11:09:21;;;;;;;33.30;22.40;;;;;;;6.23;64.25;98346.95;103536;1316;109003;-65
2021/11/28 11:11:54;;;;;;;39.20;25.40;;;;;;;6.29;64.06;98346.52;104489;1315;109144;-65
2021/11/28 11:14:27;;;;;;;33.80;22.00;;;;;;;6.32;63.90;98341.71;104434;1320;137738;-65
2021/11/28 11:17:06;;;;;;;39.00;25.20;;;;;;;6.30;64.08;98334.56;104361;1312;96067;-65
2021/11/28 11:19:40;;;;;;;41.20;24.50;;;;;;;6.31;64.52;98327.09;104400;1315;137989;-65
2021/11/28 11:22:15;;;;;;;40.50;24.80;;;;;;;6.38;64.85;98318.13;104020;1316;109320;-65
2021/11/28 11:24:52;;;;;;;39.00;24.10;;;;;;;6.42;64.48;98312.07;104440;1319;140223;-65
2021/11/28 11:27:27;;;;;;;34.20;22.60;;;;;;;6.43;64.29;98307.02;103851;1315;96131;-66
2021/11/28 11:30:02;;;;;;;38.60;23.80;;;;;;;6.45;64.13;98304.88;103818;1316;96157;-64
2021/11/28 11:32:44;;;;;;;39.90;23.60;;;;;;;6.50;64.05;98305.15;104399;1315;138173;-64
2021/11/28 11:35:21;;;;;;;38.20;24.00;;;;;;;6.61;64.40;98303.08;104465;1315;107457;-64
2021/11/28 11:37:58;;;;;;;35.90;23.20;;;;;;;6.82;64.65;98298.45;104458;1316;139050;-64
2021/11/28 11:40:31;;;;;;;38.90;24.40;;;;;;;7.10;64.45;98294.31;104483;1316;96199;-64
2021/11/28 11:43:04;;;;;;;40.70;25.50;;;;;;;7.33;63.88;98287.33;104458;1315;138263;-64
2021/11/28 11:45:38;;;;;;;44.10;26.30;;;;;;;7.44;63.62;98279.50;104444;1316;112648;-64
2021/11/28 11:48:11;;;;;;;39.60;24.00;;;;;;;7.51;63.03;98278.96;104227;1321;138069;-67
2021/11/28 11:50:44;;;;;;;37.40;23.60;;;;;;;7.55;63.26;98283.07;104399;1318;108119;-64